createdAt,value
2019-03-30T00:00:48.820Z,727.70
2019-03-30T00:01:49.290Z,727.71
2019-03-30T00:02:49.768Z,727.73
2019-03-30T00:03:50.234Z,727.71
2019-03-30T00:04:50.707Z,727.71
2019-03-30T00:05:51.179Z,727.70
2019-03-30T00:06:51.650Z,727.69
2019-03-30T00:07:52.120Z,727.65
2019-03-30T00:08:52.644Z,727.68
2019-03-30T00:09:53.064Z,727.69
2019-03-30T00:10:53.538Z,727.66
2019-03-30T00:11:54.009Z,727.66
2019-03-30T00:12:54.481Z,727.67
2019-03-30T00:13:55.054Z,727.69
2019-03-30T00:14:55.424Z,727.67
2019-03-30T00:15:55.898Z,727.66
2019-03-30T00:16:56.371Z,727.69
2019-03-30T00:17:56.846Z,727.67
2019-03-30T00:18:57.313Z,727.67
2019-03-30T00:19:57.788Z,727.67
2019-03-30T00:20:58.256Z,727.59
2019-03-30T00:21:58.727Z,727.67
2019-03-30T00:22:59.199Z,727.68
2019-03-30T00:23:59.670Z,727.64
2019-03-30T00:25:00.266Z,727.64
2019-03-30T00:26:00.617Z,727.69
2019-03-30T00:27:01.092Z,727.66
2019-03-30T00:28:01.561Z,727.66
2019-03-30T00:29:02.031Z,727.66
2019-03-30T00:30:02.504Z,727.68
2019-03-30T00:31:02.982Z,727.65
2019-03-30T00:32:03.453Z,727.65
2019-03-30T00:33:03.925Z,727.59
2019-03-30T00:34:04.393Z,727.61
2019-03-30T00:35:04.938Z,727.60
2019-03-30T00:36:05.335Z,727.66
2019-03-30T00:37:05.819Z,727.54
2019-03-30T00:38:06.281Z,727.64
2019-03-30T00:39:06.758Z,727.54
2019-03-30T00:40:07.232Z,727.55
2019-03-30T00:41:07.697Z,727.59
2019-03-30T00:42:08.169Z,727.51
2019-03-30T00:43:08.642Z,727.60
2019-03-30T00:44:09.113Z,727.54
2019-03-30T00:45:09.586Z,727.55
2019-03-30T00:46:10.057Z,727.53
2019-03-30T00:47:10.530Z,727.58
2019-03-30T00:48:11.003Z,727.55
2019-03-30T00:49:11.675Z,727.55
2019-03-30T00:50:11.945Z,727.54
2019-03-30T00:51:12.421Z,727.56
2019-03-30T00:52:12.889Z,727.53
2019-03-30T00:53:13.362Z,727.60
2019-03-30T00:54:14.036Z,727.55
2019-03-30T00:55:14.308Z,727.55
2019-03-30T00:56:14.778Z,727.55
2019-03-30T00:57:15.251Z,727.55
2019-03-30T00:58:15.723Z,727.56
2019-03-30T00:59:16.198Z,727.56
2019-03-30T01:00:16.671Z,727.53
2019-03-30T01:01:17.139Z,727.54
2019-03-30T01:02:17.614Z,727.50
2019-03-30T01:03:18.086Z,727.52
2019-03-30T01:04:18.557Z,727.50
2019-03-30T01:05:19.026Z,727.51
2019-03-30T01:06:19.500Z,727.46
2019-03-30T01:07:19.972Z,727.45
2019-03-30T01:08:20.443Z,727.46
2019-03-30T01:09:20.918Z,727.47
2019-03-30T01:10:21.387Z,727.53
2019-03-30T01:11:21.861Z,727.51
2019-03-30T01:12:22.329Z,727.48
2019-03-30T01:13:22.802Z,727.49
2019-03-30T01:14:23.270Z,727.45
2019-03-30T01:15:23.741Z,727.45
2019-03-30T01:16:24.211Z,727.50
2019-03-30T01:17:24.681Z,727.51
2019-03-30T01:18:25.151Z,727.52
2019-03-30T01:19:25.619Z,727.47
2019-03-30T01:20:26.088Z,727.46
2019-03-30T01:21:26.557Z,727.40
2019-03-30T01:22:27.028Z,727.43
2019-03-30T01:23:27.536Z,727.48
2019-03-30T01:24:28.014Z,727.42
2019-03-30T01:25:28.431Z,727.43
2019-03-30T01:26:28.898Z,727.49
2019-03-30T01:27:29.367Z,727.41
2019-03-30T01:28:29.856Z,727.44
2019-03-30T01:30:30.774Z,727.37
2019-03-30T01:31:31.242Z,727.44
2019-03-30T01:32:34.828Z,727.46
2019-03-30T01:33:32.176Z,727.45
2019-03-30T01:34:32.642Z,727.46
2019-03-30T01:35:33.111Z,727.50
2019-03-30T01:36:33.634Z,727.53
2019-03-30T01:37:34.047Z,727.46
2019-03-30T01:38:34.516Z,727.53
2019-03-30T01:39:34.985Z,727.52
2019-03-30T01:40:35.463Z,727.46
2019-03-30T01:41:35.917Z,727.43
2019-03-30T01:42:36.388Z,727.47
2019-03-30T01:43:36.854Z,727.45
2019-03-30T01:44:37.324Z,727.41
2019-03-30T01:45:37.789Z,727.41
2019-03-30T01:46:38.260Z,727.41
2019-03-30T01:47:38.728Z,727.38
2019-03-30T01:48:39.196Z,727.39
2019-03-30T01:49:39.664Z,727.37
2019-03-30T01:50:40.137Z,727.38
2019-03-30T01:51:40.601Z,727.39
2019-03-30T01:52:41.071Z,727.37
2019-03-30T01:54:42.008Z,727.35
2019-03-30T01:55:42.477Z,727.35
2019-03-30T01:56:42.944Z,727.32
2019-03-30T01:57:43.413Z,727.38
2019-03-30T01:58:43.880Z,727.41
2019-03-30T01:59:44.351Z,727.36
2019-03-30T02:00:45.161Z,727.36
2019-03-30T02:01:45.294Z,727.38
2019-03-30T02:02:45.760Z,727.33
2019-03-30T02:03:46.229Z,727.39
2019-03-30T02:04:46.695Z,727.39
2019-03-30T02:05:47.170Z,727.34
2019-03-30T02:06:47.637Z,727.37
2019-03-30T02:07:48.105Z,727.39
2019-03-30T02:08:48.579Z,727.41
2019-03-30T02:09:49.048Z,727.35
2019-03-30T02:10:49.537Z,727.34
2019-03-30T02:11:49.986Z,727.38
2019-03-30T02:12:50.455Z,727.41
2019-03-30T02:13:50.925Z,727.41
2019-03-30T02:14:51.546Z,727.37
2019-03-30T02:15:51.866Z,727.43
2019-03-30T02:16:52.334Z,727.45
2019-03-30T02:17:53.010Z,727.38
2019-03-30T02:18:53.275Z,727.44
2019-03-30T02:19:53.747Z,727.44
2019-03-30T02:20:54.215Z,727.44
2019-03-30T02:21:54.686Z,727.43
2019-03-30T02:22:55.154Z,727.43
2019-03-30T02:23:55.626Z,727.42
2019-03-30T02:24:56.103Z,727.41
2019-03-30T02:25:56.566Z,727.39
2019-03-30T02:26:57.039Z,727.40
2019-03-30T02:27:57.509Z,727.39
2019-03-30T02:28:57.980Z,727.40
2019-03-30T02:29:58.448Z,727.38
2019-03-30T02:30:58.923Z,727.38
2019-03-30T02:31:59.391Z,727.41
2019-03-30T02:32:59.862Z,727.44
2019-03-30T02:34:00.487Z,727.40
2019-03-30T02:35:00.803Z,727.46
2019-03-30T02:36:01.277Z,727.37
2019-03-30T02:37:01.755Z,727.42
2019-03-30T02:38:02.216Z,727.37
2019-03-30T02:39:02.691Z,727.37
2019-03-30T02:40:03.167Z,727.37
2019-03-30T02:41:03.631Z,727.38
2019-03-30T02:42:04.106Z,727.42
2019-03-30T02:43:04.573Z,727.40
2019-03-30T02:44:05.043Z,727.44
2019-03-30T02:45:05.696Z,727.37
2019-03-30T02:46:06.002Z,727.38
2019-03-30T02:47:06.457Z,727.38
2019-03-30T02:48:06.930Z,727.37
2019-03-30T02:49:07.399Z,727.32
2019-03-30T02:50:07.877Z,727.33
2019-03-30T02:51:08.342Z,727.30
2019-03-30T02:52:08.812Z,727.33
2019-03-30T02:53:09.299Z,727.33
2019-03-30T02:54:09.755Z,727.37
2019-03-30T02:55:12.608Z,727.30
2019-03-30T02:56:10.714Z,727.31
2019-03-30T02:57:11.167Z,727.29
2019-03-30T02:58:11.642Z,727.33
2019-03-30T02:59:12.119Z,727.31
2019-03-30T03:00:12.583Z,727.26
2019-03-30T03:01:13.053Z,727.30
2019-03-30T03:02:13.527Z,727.29
2019-03-30T03:03:13.998Z,727.26
2019-03-30T03:04:14.570Z,727.29
2019-03-30T03:05:14.940Z,727.29
2019-03-30T03:06:15.412Z,727.31
2019-03-30T03:07:15.885Z,727.30
2019-03-30T03:08:16.363Z,727.31
2019-03-30T03:09:16.830Z,727.30
2019-03-30T03:10:17.299Z,727.32
2019-03-30T03:11:17.770Z,727.28
2019-03-30T03:12:18.242Z,727.28
2019-03-30T03:13:18.712Z,727.19
2019-03-30T03:14:19.184Z,727.25
2019-03-30T03:15:19.656Z,727.28
2019-03-30T03:16:20.475Z,727.29
2019-03-30T03:17:20.599Z,727.23
2019-03-30T03:18:21.071Z,727.22
2019-03-30T03:19:21.541Z,727.23
2019-03-30T03:20:22.014Z,727.21
2019-03-30T03:21:22.487Z,727.26
2019-03-30T03:22:23.041Z,727.25
2019-03-30T03:23:23.425Z,727.24
2019-03-30T03:24:23.904Z,727.23
2019-03-30T03:25:24.375Z,727.27
2019-03-30T03:26:24.843Z,727.20
2019-03-30T03:27:25.312Z,727.23
2019-03-30T03:28:25.790Z,727.20
2019-03-30T03:29:26.458Z,727.19
2019-03-30T03:30:26.793Z,727.19
2019-03-30T03:31:27.590Z,727.12
2019-03-30T03:32:27.736Z,727.16
2019-03-30T03:33:28.144Z,727.15
2019-03-30T03:34:28.625Z,727.18
2019-03-30T03:35:29.087Z,727.19
2019-03-30T03:36:29.560Z,727.11
2019-03-30T03:37:43.405Z,727.11
2019-03-30T03:38:30.502Z,727.16
2019-03-30T03:39:30.975Z,727.15
2019-03-30T03:40:31.445Z,727.17
2019-03-30T03:41:31.917Z,727.11
2019-03-30T03:42:32.389Z,727.11
2019-03-30T03:43:32.869Z,727.12
2019-03-30T03:44:33.335Z,727.12
2019-03-30T03:45:34.056Z,727.16
2019-03-30T03:46:34.276Z,727.15
2019-03-30T03:47:34.748Z,727.08
2019-03-30T03:48:35.219Z,727.12
2019-03-30T03:49:35.692Z,727.09
2019-03-30T03:50:36.171Z,727.04
2019-03-30T03:51:36.645Z,727.06
2019-03-30T03:52:37.138Z,727.02
2019-03-30T03:53:37.582Z,727.10
2019-03-30T03:54:38.052Z,727.04
2019-03-30T03:55:38.522Z,727.03
2019-03-30T03:56:38.995Z,727.07
2019-03-30T03:57:39.466Z,727.02
2019-03-30T03:58:39.936Z,726.99
2019-03-30T03:59:40.410Z,726.97
2019-03-30T04:00:41.086Z,726.98
2019-03-30T04:01:41.354Z,727.03
2019-03-30T04:02:41.826Z,727.05
2019-03-30T04:03:42.297Z,727.09
2019-03-30T04:04:46.908Z,727.00
2019-03-30T04:05:43.245Z,727.02
2019-03-30T04:06:43.710Z,726.97
2019-03-30T04:07:44.185Z,727.04
2019-03-30T04:08:44.654Z,727.07
2019-03-30T04:09:45.128Z,727.05
2019-03-30T04:10:45.600Z,727.00
2019-03-30T04:11:46.071Z,727.03
2019-03-30T04:12:46.542Z,726.98
2019-03-30T04:13:47.035Z,726.99
2019-03-30T04:14:47.485Z,727.00
2019-03-30T04:15:48.007Z,726.96
2019-03-30T04:16:48.435Z,727.01
2019-03-30T04:17:48.901Z,727.02
2019-03-30T04:18:49.374Z,726.99
2019-03-30T04:19:49.845Z,727.02
2019-03-30T04:20:50.322Z,727.04
2019-03-30T04:21:50.798Z,727.01
2019-03-30T04:22:51.262Z,727.05
2019-03-30T04:23:54.242Z,727.02
2019-03-30T04:24:52.205Z,727.02
2019-03-30T04:25:52.674Z,727.01
2019-03-30T04:26:53.147Z,727.01
2019-03-30T04:27:53.622Z,727.08
2019-03-30T04:28:54.091Z,727.04
2019-03-30T04:29:54.567Z,726.96
2019-03-30T04:30:55.096Z,726.98
2019-03-30T04:31:55.509Z,726.95
2019-03-30T04:32:55.984Z,726.95
2019-03-30T04:33:56.451Z,727.00
2019-03-30T04:34:56.924Z,727.00
2019-03-30T04:35:57.398Z,726.92
2019-03-30T04:36:57.869Z,727.02
2019-03-30T04:37:58.338Z,726.92
2019-03-30T04:38:58.908Z,726.97
2019-03-30T04:39:59.286Z,726.94
2019-03-30T04:40:59.758Z,726.93
2019-03-30T04:42:00.228Z,726.95
2019-03-30T04:43:00.706Z,726.98
2019-03-30T04:44:01.177Z,726.96
2019-03-30T04:45:01.646Z,726.89
2019-03-30T04:46:02.319Z,726.88
2019-03-30T04:47:02.591Z,726.96
2019-03-30T04:48:03.194Z,726.96
2019-03-30T04:49:03.536Z,726.96
2019-03-30T04:50:04.005Z,726.98
2019-03-30T04:51:04.478Z,726.92
2019-03-30T04:52:04.950Z,726.91
2019-03-30T04:53:05.424Z,726.94
2019-03-30T04:54:05.891Z,726.88
2019-03-30T04:55:06.365Z,726.94
2019-03-30T04:56:06.838Z,726.88
2019-03-30T04:57:07.312Z,726.86
2019-03-30T04:58:09.439Z,726.89
2019-03-30T04:59:08.255Z,726.92
2019-03-30T05:00:08.727Z,726.89
2019-03-30T05:01:09.199Z,726.92
2019-03-30T05:02:09.669Z,726.96
2019-03-30T05:03:10.143Z,726.96
2019-03-30T05:04:10.615Z,726.92
2019-03-30T05:05:11.088Z,726.95
2019-03-30T05:06:11.558Z,726.90
2019-03-30T05:07:12.034Z,726.96
2019-03-30T05:08:12.501Z,726.95
2019-03-30T05:09:12.976Z,726.97
2019-03-30T05:10:13.453Z,726.93
2019-03-30T05:11:13.919Z,726.97
2019-03-30T05:12:14.391Z,726.91
2019-03-30T05:13:14.870Z,726.99
2019-03-30T05:14:15.336Z,726.95
2019-03-30T05:15:15.808Z,726.98
2019-03-30T05:16:16.332Z,726.97
2019-03-30T05:17:16.751Z,726.98
2019-03-30T05:18:17.224Z,726.97
2019-03-30T05:19:17.696Z,726.96
2019-03-30T05:20:18.168Z,726.92
2019-03-30T05:21:18.643Z,726.97
2019-03-30T05:22:19.111Z,726.91
2019-03-30T05:23:19.587Z,726.98
2019-03-30T05:24:20.058Z,727.01
2019-03-30T05:25:20.530Z,726.96
2019-03-30T05:26:21.004Z,726.95
2019-03-30T05:27:21.474Z,726.96
2019-03-30T05:28:21.946Z,726.96
2019-03-30T05:29:22.420Z,726.94
2019-03-30T05:30:22.892Z,726.99
2019-03-30T05:31:23.361Z,726.93
2019-03-30T05:32:23.836Z,726.95
2019-03-30T05:33:24.310Z,727.00
2019-03-30T05:34:24.780Z,726.97
2019-03-30T05:35:25.252Z,726.92
2019-03-30T05:36:25.724Z,726.98
2019-03-30T05:37:26.197Z,726.93
2019-03-30T05:38:26.670Z,726.97
2019-03-30T05:39:27.177Z,726.94
2019-03-30T05:40:27.621Z,726.98
2019-03-30T05:41:28.095Z,726.95
2019-03-30T05:42:28.557Z,726.95
2019-03-30T05:43:29.028Z,726.96
2019-03-30T05:44:29.502Z,726.93
2019-03-30T05:45:29.977Z,726.96
2019-03-30T05:46:30.447Z,726.94
2019-03-30T05:47:30.936Z,726.90
2019-03-30T05:48:31.390Z,726.89
2019-03-30T05:49:31.861Z,726.92
2019-03-30T05:50:32.338Z,726.90
2019-03-30T05:51:32.844Z,726.91
2019-03-30T05:52:35.639Z,726.92
2019-03-30T05:53:33.756Z,726.90
2019-03-30T05:54:34.218Z,726.90
2019-03-30T05:55:34.691Z,726.95
2019-03-30T05:56:35.161Z,726.91
2019-03-30T05:57:35.631Z,726.93
2019-03-30T05:58:36.100Z,726.88
2019-03-30T05:59:36.571Z,726.91
2019-03-30T06:00:37.044Z,726.88
2019-03-30T06:01:37.511Z,726.89
2019-03-30T06:02:37.986Z,726.94
2019-03-30T06:03:38.451Z,726.88
2019-03-30T06:04:38.922Z,726.90
2019-03-30T06:05:39.388Z,726.87
2019-03-30T06:06:39.858Z,726.88
2019-03-30T06:07:40.325Z,726.91
2019-03-30T06:08:40.797Z,726.90
2019-03-30T06:09:41.263Z,726.89
2019-03-30T06:10:41.731Z,726.90
2019-03-30T06:11:42.201Z,726.89
2019-03-30T06:12:42.668Z,726.92
2019-03-30T06:13:43.135Z,726.91
2019-03-30T06:14:43.599Z,726.92
2019-03-30T06:15:44.069Z,726.89
2019-03-30T06:16:44.538Z,726.92
2019-03-30T06:17:45.009Z,726.90
2019-03-30T06:18:45.474Z,726.83
2019-03-30T06:19:46.017Z,726.88
2019-03-30T06:20:46.424Z,726.84
2019-03-30T06:21:46.884Z,726.89
2019-03-30T06:22:47.347Z,726.88
2019-03-30T06:23:48.772Z,726.84
2019-03-30T06:24:48.287Z,726.83
2019-03-30T06:25:48.757Z,726.88
2019-03-30T06:26:49.216Z,726.81
2019-03-30T06:27:49.689Z,726.84
2019-03-30T06:28:50.151Z,726.82
2019-03-30T06:29:50.620Z,726.82
2019-03-30T06:30:51.088Z,726.81
2019-03-30T06:31:51.557Z,726.79
2019-03-30T06:32:52.027Z,726.80
2019-03-30T06:33:52.496Z,726.79
2019-03-30T06:34:52.961Z,726.79
2019-03-30T06:35:53.429Z,726.78
2019-03-30T06:36:53.899Z,726.78
2019-03-30T06:37:54.369Z,726.82
2019-03-30T06:38:54.837Z,726.74
2019-03-30T06:39:55.305Z,726.77
2019-03-30T06:40:55.773Z,726.74
2019-03-30T06:41:56.247Z,726.74
2019-03-30T06:42:56.713Z,726.77
2019-03-30T06:43:57.180Z,726.71
2019-03-30T06:44:57.650Z,726.74
2019-03-30T06:45:58.119Z,726.73
2019-03-30T06:46:58.586Z,726.73
2019-03-30T06:47:59.057Z,726.76
2019-03-30T06:48:59.526Z,726.73
2019-03-30T06:49:59.995Z,726.73
2019-03-30T06:51:00.465Z,726.76
2019-03-30T06:52:00.934Z,726.73
2019-03-30T06:53:01.405Z,726.72
2019-03-30T06:54:01.877Z,726.72
2019-03-30T06:55:02.347Z,726.69
2019-03-30T06:56:02.815Z,726.72
2019-03-30T06:57:03.284Z,726.63
2019-03-30T06:58:03.753Z,726.72
2019-03-30T06:59:04.222Z,726.64
2019-03-30T07:00:04.692Z,726.73
2019-03-30T07:01:05.164Z,726.75
2019-03-30T07:02:05.632Z,726.73
2019-03-30T07:03:06.101Z,726.77
2019-03-30T07:04:06.572Z,726.73
2019-03-30T07:05:07.042Z,726.76
2019-03-30T07:06:07.513Z,726.74
2019-03-30T07:07:07.984Z,726.75
2019-03-30T07:08:08.453Z,726.73
2019-03-30T07:09:08.924Z,726.74
2019-03-30T07:10:09.396Z,726.77
2019-03-30T07:11:20.660Z,726.79
2019-03-30T07:12:10.340Z,726.81
2019-03-30T07:13:10.805Z,726.80
2019-03-30T07:14:11.276Z,726.79
2019-03-30T07:15:11.745Z,726.75
2019-03-30T07:16:12.216Z,726.75
2019-03-30T07:17:12.693Z,726.77
2019-03-30T07:18:13.158Z,726.75
2019-03-30T07:19:13.629Z,726.82
2019-03-30T07:20:14.100Z,726.80
2019-03-30T07:21:14.571Z,726.67
2019-03-30T07:22:15.041Z,726.76
2019-03-30T07:23:15.515Z,726.76
2019-03-30T07:24:15.982Z,726.80
2019-03-30T07:25:16.458Z,726.76
2019-03-30T07:26:16.924Z,726.74
2019-03-30T07:27:17.398Z,726.73
2019-03-30T07:28:17.870Z,726.75
2019-03-30T07:29:18.338Z,726.75
2019-03-30T07:30:18.809Z,726.76
2019-03-30T07:31:19.281Z,726.73
2019-03-30T07:32:19.753Z,726.73
2019-03-30T07:33:20.220Z,726.72
2019-03-30T07:34:20.692Z,726.71
2019-03-30T07:35:21.163Z,726.78
2019-03-30T07:36:21.635Z,726.74
2019-03-30T07:37:22.104Z,726.72
2019-03-30T07:38:22.579Z,726.73
2019-03-30T07:39:23.049Z,726.70
2019-03-30T07:40:23.521Z,726.68
2019-03-30T07:41:23.991Z,726.69
2019-03-30T07:43:24.933Z,726.71
2019-03-30T07:44:25.405Z,726.67
2019-03-30T07:45:25.876Z,726.69
2019-03-30T07:46:26.347Z,726.77
2019-03-30T07:47:26.830Z,726.71
2019-03-30T07:48:27.330Z,726.70
2019-03-30T07:49:27.762Z,726.73
2019-03-30T07:50:28.238Z,726.72
2019-03-30T07:51:28.704Z,726.69
2019-03-30T07:53:43.539Z,726.70
2019-03-30T07:54:30.122Z,726.70
2019-03-30T07:55:30.590Z,726.71
2019-03-30T07:56:31.063Z,726.67
2019-03-30T07:58:32.008Z,726.69
2019-03-30T07:59:32.484Z,726.71
2019-03-30T08:00:32.951Z,726.72
2019-03-30T08:01:33.420Z,726.66
2019-03-30T08:02:33.894Z,726.69
2019-03-30T08:03:34.364Z,726.70
2019-03-30T08:04:34.838Z,726.64
2019-03-30T08:06:35.783Z,726.68
2019-03-30T08:07:36.258Z,726.68
2019-03-30T08:08:36.724Z,726.61
2019-03-30T08:09:37.376Z,726.72
2019-03-30T08:10:37.672Z,726.68
2019-03-30T08:11:38.138Z,726.70
2019-03-30T08:12:38.615Z,726.70
2019-03-30T08:13:39.084Z,726.65
2019-03-30T08:14:39.553Z,726.66
2019-03-30T08:16:40.503Z,726.71
2019-03-30T08:18:41.443Z,726.71
2019-03-30T08:19:41.913Z,726.71
2019-03-30T08:20:42.385Z,726.71
2019-03-30T08:21:42.858Z,726.72
2019-03-30T08:22:43.374Z,726.66
2019-03-30T08:23:44.007Z,726.70
2019-03-30T08:24:44.278Z,726.71
2019-03-30T08:25:44.748Z,726.74
2019-03-30T08:26:45.221Z,726.70
2019-03-30T08:27:45.689Z,726.72
2019-03-30T08:28:46.164Z,726.73
2019-03-30T08:29:46.635Z,726.66
2019-03-30T08:30:47.109Z,726.73
2019-03-30T08:31:50.001Z,726.69
2019-03-30T08:32:48.053Z,726.69
2019-03-30T08:33:48.521Z,726.64
2019-03-30T08:34:49.001Z,726.71
2019-03-30T08:35:49.807Z,726.66
2019-03-30T08:36:49.938Z,726.65
2019-03-30T08:37:50.410Z,726.66
2019-03-30T08:38:50.887Z,726.71
2019-03-30T08:39:51.356Z,726.66
2019-03-30T08:40:51.824Z,726.63
2019-03-30T08:41:52.301Z,726.65
2019-03-30T08:42:52.769Z,726.69
2019-03-30T08:43:53.244Z,726.62
2019-03-30T08:44:53.713Z,726.61
2019-03-30T08:45:54.187Z,726.67
2019-03-30T08:46:54.661Z,726.62
2019-03-30T08:47:55.134Z,726.65
2019-03-30T08:48:55.601Z,726.63
2019-03-30T08:49:56.074Z,726.66
2019-03-30T08:50:56.749Z,726.64
2019-03-30T08:51:57.019Z,726.61
2019-03-30T08:52:57.488Z,726.64
2019-03-30T08:53:57.963Z,726.67
2019-03-30T08:54:58.640Z,726.62
2019-03-30T08:55:58.909Z,726.67
2019-03-30T08:56:59.384Z,726.66
2019-03-30T08:57:59.851Z,726.64
2019-03-30T08:59:00.326Z,726.60
2019-03-30T09:00:00.794Z,726.64
2019-03-30T09:01:01.283Z,726.60
2019-03-30T09:02:01.942Z,726.64
2019-03-30T09:03:02.213Z,726.59
2019-03-30T09:04:02.684Z,726.58
2019-03-30T09:05:03.157Z,726.59
2019-03-30T09:06:03.629Z,726.56
2019-03-30T09:07:04.103Z,726.61
2019-03-30T09:08:04.571Z,726.62
2019-03-30T09:09:05.045Z,726.64
2019-03-30T09:10:05.564Z,726.59
2019-03-30T09:11:05.987Z,726.61
2019-03-30T09:12:06.457Z,726.60
2019-03-30T09:15:07.871Z,726.55
2019-03-30T09:16:08.341Z,726.56
2019-03-30T09:17:08.810Z,726.59
2019-03-30T09:18:09.281Z,726.58
2019-03-30T09:19:09.753Z,726.58
2019-03-30T09:20:10.223Z,726.56
2019-03-30T09:21:10.695Z,726.54
2019-03-30T09:22:11.160Z,726.58
2019-03-30T09:23:11.632Z,726.54
2019-03-30T09:24:12.301Z,726.49
2019-03-30T09:25:12.769Z,726.50
2019-03-30T09:26:16.400Z,726.51
2019-03-30T09:27:13.504Z,726.55
2019-03-30T09:28:13.972Z,726.54
2019-03-30T09:29:14.440Z,726.50
2019-03-30T09:30:14.910Z,726.52
2019-03-30T09:31:15.378Z,726.57
2019-03-30T09:32:15.845Z,726.53
2019-03-30T09:33:16.315Z,726.47
2019-03-30T09:34:17.186Z,726.51
2019-03-30T09:35:17.248Z,726.51
2019-03-30T09:36:17.721Z,726.53
2019-03-30T09:38:18.675Z,726.51
2019-03-30T09:39:19.121Z,726.47
2019-03-30T09:40:19.588Z,726.46
2019-03-30T09:41:20.056Z,726.48
2019-03-30T09:42:20.526Z,726.43
2019-03-30T09:44:21.460Z,726.48
2019-03-30T09:45:22.129Z,726.49
2019-03-30T09:46:22.395Z,726.49
2019-03-30T09:47:22.866Z,726.43
2019-03-30T09:48:23.333Z,726.46
2019-03-30T09:49:23.802Z,726.50
2019-03-30T09:50:24.268Z,726.48
2019-03-30T09:51:24.739Z,726.46
2019-03-30T09:52:25.206Z,726.46
2019-03-30T09:53:25.676Z,726.47
2019-03-30T09:54:26.144Z,726.49
2019-03-30T09:55:27.356Z,726.48
2019-03-30T09:56:27.105Z,726.45
2019-03-30T09:57:27.573Z,726.49
2019-03-30T09:59:28.489Z,726.52
2019-03-30T10:00:29.038Z,726.49
2019-03-30T10:01:29.627Z,726.47
2019-03-30T10:02:29.896Z,726.52
2019-03-30T10:03:31.566Z,726.45
2019-03-30T10:04:31.178Z,726.53
2019-03-30T10:05:31.510Z,726.40
2019-03-30T10:06:34.618Z,726.46
2019-03-30T10:07:32.243Z,726.44
2019-03-30T10:08:32.914Z,726.45
2019-03-30T10:09:33.383Z,726.45
2019-03-30T10:10:33.855Z,726.48
2019-03-30T10:11:34.120Z,726.44
2019-03-30T10:12:34.590Z,726.44
2019-03-30T10:13:35.060Z,726.39
2019-03-30T10:14:35.531Z,726.37
2019-03-30T10:15:36.001Z,726.42
2019-03-30T10:16:36.469Z,726.41
2019-03-30T10:17:36.942Z,726.44
2019-03-30T10:18:37.690Z,726.41
2019-03-30T10:19:37.888Z,726.42
2019-03-30T10:20:38.351Z,726.39
2019-03-30T10:21:38.823Z,726.39
2019-03-30T10:22:42.034Z,726.37
2019-03-30T10:23:39.761Z,726.40
2019-03-30T10:24:40.237Z,726.42
2019-03-30T10:25:40.702Z,726.37
2019-03-30T10:26:41.382Z,726.36
2019-03-30T10:28:42.317Z,726.32
2019-03-30T10:29:42.787Z,726.33
2019-03-30T10:30:43.055Z,726.35
2019-03-30T10:31:43.527Z,726.35
2019-03-30T10:32:44.199Z,726.35
2019-03-30T10:33:44.468Z,726.34
2019-03-30T10:34:44.942Z,726.29
2019-03-30T10:35:45.409Z,726.32
2019-03-30T10:36:45.879Z,726.27
2019-03-30T10:37:46.349Z,726.29
2019-03-30T10:38:47.166Z,726.32
2019-03-30T10:39:47.342Z,726.35
2019-03-30T10:40:47.965Z,726.31
2019-03-30T10:41:48.234Z,726.32
2019-03-30T10:42:48.706Z,726.34
2019-03-30T10:43:49.857Z,726.26
2019-03-30T10:44:49.646Z,726.26
2019-03-30T10:45:50.118Z,726.33
2019-03-30T10:47:51.263Z,726.30
2019-03-30T10:48:51.532Z,726.36
2019-03-30T10:49:52.230Z,726.25
2019-03-30T10:50:52.877Z,726.29
2019-03-30T10:51:54.332Z,726.37
2019-03-30T10:52:53.700Z,726.36
2019-03-30T10:54:54.561Z,726.31
2019-03-30T10:57:58.435Z,726.36
2019-03-30T10:59:56.918Z,726.38
2019-03-30T11:00:57.942Z,726.37
2019-03-30T11:01:58.337Z,726.36
2019-03-30T11:03:59.008Z,726.39
2019-03-30T11:04:59.072Z,726.39
2019-03-30T11:05:59.542Z,726.33
2019-03-30T11:07:00.665Z,726.28
2019-03-30T11:08:00.766Z,726.34
2019-03-30T11:10:03.529Z,726.34
2019-03-30T11:11:02.104Z,726.31
2019-03-30T11:12:04.062Z,726.30
2019-03-30T11:13:03.529Z,726.32
2019-03-30T11:16:08.104Z,726.26
2019-03-30T11:21:06.821Z,726.24
2019-03-30T11:24:08.779Z,726.19
2019-03-30T11:26:13.095Z,726.17
2019-03-30T11:28:13.778Z,726.20
2019-03-30T11:37:45.874Z,726.10
2019-03-30T11:42:52.396Z,726.09
2019-03-30T11:44:46.258Z,726.08
2019-03-30T11:50:49.698Z,726.10
2019-03-30T11:55:57.843Z,726.11
2019-03-30T12:00:53.532Z,726.08
2019-03-30T12:01:59.257Z,726.03
2019-03-30T12:02:55.220Z,726.02
2019-03-30T12:04:59.547Z,726.06
2019-03-30T12:14:01.866Z,725.98
2019-03-30T12:19:03.358Z,725.91
2019-03-30T12:28:08.235Z,725.92
2019-03-30T12:29:07.765Z,725.96
2019-03-30T12:30:07.427Z,725.92
2019-03-30T12:31:08.102Z,725.87
2019-03-30T12:32:09.052Z,725.88
2019-03-30T12:33:09.502Z,725.88
2019-03-30T12:34:13.099Z,725.91
2019-03-30T12:41:13.563Z,725.84
2019-03-30T12:43:13.677Z,725.84
2019-03-30T12:44:14.241Z,725.79
2019-03-30T12:45:15.384Z,725.80
2019-03-30T12:46:15.383Z,725.82
2019-03-30T12:50:18.408Z,725.82
2019-03-30T12:54:19.098Z,725.80
2019-03-30T12:55:19.373Z,725.81
2019-03-30T12:56:19.620Z,725.72
2019-03-30T13:00:22.604Z,725.70
2019-03-30T13:01:23.616Z,725.79
2019-03-30T13:02:22.805Z,725.77
2019-03-30T13:03:23.138Z,725.73
2019-03-30T13:05:24.944Z,725.65
2019-03-30T13:08:26.496Z,725.68
2019-03-30T13:09:26.822Z,725.59
2019-03-30T13:13:28.307Z,725.70
2019-03-30T13:19:32.663Z,725.61
2019-03-30T13:21:33.182Z,725.62
2019-03-30T13:23:32.922Z,725.61
2019-03-30T13:25:35.070Z,725.63
2019-03-30T13:29:36.413Z,725.56
2019-03-30T13:31:39.298Z,725.56
2019-03-30T13:32:36.858Z,725.58
2019-03-30T13:34:39.085Z,725.56
2019-03-30T13:36:46.429Z,725.61
2019-03-30T13:39:40.563Z,725.60
2019-03-30T13:44:42.417Z,725.58
2019-03-30T13:45:43.364Z,725.56
2019-03-30T13:54:47.901Z,725.52
2019-03-30T13:55:48.190Z,725.60
2019-03-30T13:59:50.076Z,725.52
2019-03-30T14:02:50.664Z,725.56
2019-03-30T14:10:54.815Z,725.58
2019-03-30T14:18:15.229Z,725.52
2019-03-30T14:20:27.581Z,725.51
2019-03-30T14:23:02.693Z,725.47
2019-03-30T17:48:31.126Z,724.65
2019-03-30T17:51:44.491Z,724.70
2019-03-30T17:53:44.562Z,724.70
2019-03-30T18:07:40.353Z,724.69
2019-03-30T18:08:40.406Z,724.67
2019-03-30T18:11:44.108Z,724.68
2019-03-30T18:14:43.581Z,724.66
2019-03-30T18:15:45.260Z,724.71
2019-03-30T18:17:44.994Z,724.70
2019-03-30T18:18:49.964Z,724.70
2019-03-30T18:20:46.671Z,724.69
2019-03-30T18:21:49.908Z,724.69
2019-03-30T18:22:48.208Z,724.68
2019-03-30T18:26:49.026Z,724.75
2019-03-30T18:27:49.296Z,724.72
2019-03-30T18:28:49.766Z,724.74
2019-03-30T18:29:50.161Z,724.71
2019-03-30T18:30:50.906Z,724.64
2019-03-30T18:31:51.579Z,724.70
2019-03-30T18:32:53.380Z,724.71
2019-03-30T18:34:52.581Z,724.67
2019-03-30T18:35:52.848Z,724.69
2019-03-30T18:37:53.785Z,724.64
2019-03-30T18:39:08.460Z,724.63
2019-03-30T18:39:54.774Z,724.68
2019-03-30T18:40:55.190Z,724.73
2019-03-30T18:41:55.862Z,724.69
2019-03-30T18:42:56.328Z,724.69
2019-03-30T18:44:57.266Z,724.62
2019-03-30T18:47:58.670Z,724.72
2019-03-30T18:48:58.933Z,724.71
2019-03-30T18:49:59.707Z,724.74
2019-03-30T18:52:00.342Z,724.73
2019-03-30T18:53:00.808Z,724.73
2019-03-30T18:54:01.279Z,724.76
2019-03-30T18:55:01.743Z,724.75
2019-03-30T18:56:02.213Z,724.76
2019-03-30T18:57:02.682Z,724.73
2019-03-30T18:58:03.151Z,724.75
2019-03-30T18:59:03.617Z,724.81
2019-03-30T19:00:04.085Z,724.72
2019-03-30T19:01:04.613Z,724.74